Time,TemperatureF,DewpointF,PressureIn,WindDirection,WindDirectionDegrees,WindSpeedMPH,WindSpeedGustMPH,Humidity,HourlyPrecipIn,Conditions,Clouds,dailyrainin,SolarRadiationWatts/m^2,SoftwareType,DateUTC
2013-08-09 00:01:00,52.0,39.0,30.53,ESE,103,11.0,14.0,60,0.00,,,0.00,0.000000,,2013-08-09 06:01:00,
2013-08-09 00:11:00,52.0,39.0,30.53,ESE,103,11.0,14.0,60,0.00,,,0.00,0.000000,,2013-08-09 06:11:00,
2013-08-09 00:12:00,51.0,37.0,30.51,ESE,105,15.0,19.0,59,0.00,,,0.00,0.000000,,2013-08-09 06:12:00,
2013-08-09 00:32:00,51.0,37.0,30.51,ESE,105,15.0,19.0,59,0.00,,,0.00,0.000000,,2013-08-09 06:32:00,
2013-08-09 00:43:00,51.0,37.0,30.51,ESE,105,15.0,19.0,59,0.00,,,0.00,0.000000,,2013-08-09 06:43:00,
2013-08-09 00:52:00,51.0,37.0,30.51,ESE,105,15.0,19.0,59,0.00,,,0.00,0.000000,,2013-08-09 06:52:00,
2013-08-09 01:01:00,51.0,37.0,30.51,ESE,105,15.0,19.0,59,0.00,,,0.00,0.000000,,2013-08-09 07:01:00,
2013-08-09 01:12:00,52.0,38.0,30.52,ESE,109,16.0,21.0,58,0.00,,,0.00,0.000000,,2013-08-09 07:12:00,
2013-08-09 01:33:00,52.0,38.0,30.52,ESE,109,16.0,21.0,58,0.00,,,0.00,0.000000,,2013-08-09 07:33:00,
2013-08-09 01:43:00,52.0,38.0,30.52,ESE,109,16.0,21.0,58,0.00,,,0.00,0.000000,,2013-08-09 07:43:00,
2013-08-09 01:53:00,52.0,38.0,30.52,ESE,109,16.0,21.0,58,0.00,,,0.00,0.000000,,2013-08-09 07:53:00,
2013-08-09 02:02:00,52.0,38.0,30.52,ESE,109,16.0,21.0,58,0.00,,,0.00,0.000000,,2013-08-09 08:02:00,
2013-08-09 02:12:00,52.0,37.0,30.51,ESE,105,16.0,19.0,57,0.00,,,0.00,0.000000,,2013-08-09 08:12:00,
2013-08-09 02:32:00,52.0,37.0,30.51,ESE,105,16.0,19.0,57,0.00,,,0.00,0.000000,,2013-08-09 08:32:00,
2013-08-09 02:43:00,52.0,37.0,30.51,ESE,105,16.0,19.0,57,0.00,,,0.00,0.000000,,2013-08-09 08:43:00,
2013-08-09 02:53:00,52.0,37.0,30.51,ESE,105,16.0,19.0,57,0.00,,,0.00,0.000000,,2013-08-09 08:53:00,
2013-08-09 03:02:00,52.0,37.0,30.51,ESE,105,16.0,19.0,57,0.00,,,0.00,0.000000,,2013-08-09 09:02:00,
2013-08-09 03:12:00,52.0,38.0,30.52,ESE,104,15.0,21.0,59,0.00,,,0.00,0.000000,,2013-08-09 09:12:00,
2013-08-09 03:32:00,52.0,38.0,30.52,ESE,104,15.0,21.0,59,0.00,,,0.00,0.000000,,2013-08-09 09:32:00,
2013-08-09 03:43:00,52.0,38.0,30.52,ESE,104,15.0,21.0,59,0.00,,,0.00,0.000000,,2013-08-09 09:43:00,
2013-08-09 03:52:00,52.0,38.0,30.52,ESE,104,15.0,21.0,59,0.00,,,0.00,0.000000,,2013-08-09 09:52:00,
2013-08-09 04:01:00,52.0,38.0,30.52,ESE,104,15.0,21.0,59,0.00,,,0.00,0.000000,,2013-08-09 10:01:00,
2013-08-09 04:32:00,49.0,38.0,30.52,ESE,105,17.0,22.0,66,0.00,,,0.00,0.000000,,2013-08-09 10:32:00,
2013-08-09 04:43:00,49.0,38.0,30.52,ESE,105,17.0,22.0,66,0.00,,,0.00,0.000000,,2013-08-09 10:43:00,
2013-08-09 04:53:00,49.0,38.0,30.52,ESE,105,17.0,22.0,66,0.00,,,0.00,0.000000,,2013-08-09 10:53:00,
2013-08-09 05:02:00,49.0,38.0,30.52,ESE,105,17.0,22.0,66,0.00,,,0.00,0.000000,,2013-08-09 11:02:00,
2013-08-09 05:11:00,49.0,38.0,30.52,ESE,105,17.0,22.0,66,0.00,,,0.00,0.000000,,2013-08-09 11:11:00,
2013-08-09 05:12:00,48.0,37.0,30.51,ESE,102,12.0,21.0,66,0.00,,,0.00,0.000000,,2013-08-09 11:12:00,
2013-08-09 05:33:00,48.0,37.0,30.51,ESE,102,12.0,21.0,66,0.00,,,0.00,0.000000,,2013-08-09 11:33:00,
2013-08-09 05:43:00,48.0,37.0,30.51,ESE,102,12.0,21.0,66,0.00,,,0.00,0.000000,,2013-08-09 11:43:00,
2013-08-09 05:53:00,48.0,37.0,30.51,ESE,102,12.0,21.0,66,0.00,,,0.00,0.000000,,2013-08-09 11:53:00,
2013-08-09 06:02:00,48.0,37.0,30.51,ESE,102,12.0,21.0,66,0.00,,,0.00,0.000000,,2013-08-09 12:02:00,
2013-08-09 06:12:00,50.0,38.0,30.53,ESE,103,10.0,15.0,62,0.00,,,0.00,0.000000,,2013-08-09 12:12:00,
2013-08-09 06:32:00,50.0,38.0,30.53,ESE,103,10.0,15.0,62,0.00,,,0.00,0.000000,,2013-08-09 12:32:00,
2013-08-09 06:43:00,50.0,38.0,30.53,ESE,103,10.0,15.0,62,0.00,,,0.00,0.000000,,2013-08-09 12:43:00,
2013-08-09 06:52:00,50.0,38.0,30.53,ESE,103,10.0,15.0,62,0.00,,,0.00,0.000000,,2013-08-09 12:52:00,
2013-08-09 07:01:00,50.0,38.0,30.53,ESE,103,10.0,15.0,62,0.00,,,0.00,0.000000,,2013-08-09 13:01:00,
2013-08-09 07:32:00,47.0,36.0,30.53,ESE,103,16.0,21.0,65,0.00,,,0.00,23.000000,,2013-08-09 13:32:00,
2013-08-09 07:43:00,47.0,36.0,30.53,ESE,103,16.0,21.0,65,0.00,,,0.00,23.000000,,2013-08-09 13:43:00,
2013-08-09 07:52:00,47.0,36.0,30.53,ESE,103,16.0,21.0,65,0.00,,,0.00,23.000000,,2013-08-09 13:52:00,
2013-08-09 08:02:00,47.0,36.0,30.53,ESE,103,16.0,21.0,65,0.00,,,0.00,23.000000,,2013-08-09 14:02:00,
2013-08-09 08:11:00,47.0,36.0,30.53,ESE,103,16.0,21.0,65,0.00,,,0.00,23.000000,,2013-08-09 14:11:00,
2013-08-09 08:33:00,48.0,38.0,30.54,East,100,17.0,21.0,67,0.00,,,0.00,126.000000,,2013-08-09 14:33:00,
2013-08-09 08:43:00,48.0,38.0,30.54,East,100,17.0,21.0,67,0.00,,,0.00,126.000000,,2013-08-09 14:43:00,
2013-08-09 08:53:00,48.0,38.0,30.54,East,100,17.0,21.0,67,0.00,,,0.00,126.000000,,2013-08-09 14:53:00,
2013-08-09 09:02:00,48.0,38.0,30.54,East,100,17.0,21.0,67,0.00,,,0.00,126.000000,,2013-08-09 15:02:00,
2013-08-09 09:11:00,48.0,38.0,30.54,East,100,17.0,21.0,67,0.00,,,0.00,126.000000,,2013-08-09 15:11:00,
2013-08-09 09:33:00,52.0,38.0,30.56,ESE,104,16.0,21.0,59,-99.99,,,0.00,279.000000,,2013-08-09 15:33:00,
2013-08-09 09:44:00,52.0,38.0,30.56,ESE,104,16.0,21.0,59,-99.99,,,0.00,279.000000,,2013-08-09 15:44:00,
2013-08-09 09:53:00,52.0,38.0,30.56,ESE,104,16.0,21.0,59,-99.99,,,0.00,279.000000,,2013-08-09 15:53:00,
2013-08-09 10:01:00,52.0,38.0,30.56,ESE,104,16.0,21.0,59,-99.99,,,0.00,279.000000,,2013-08-09 16:01:00,
2013-08-09 10:11:00,52.0,38.0,30.56,ESE,104,16.0,21.0,59,-99.99,,,0.00,279.000000,,2013-08-09 16:11:00,
2013-08-09 10:32:00,56.0,39.0,30.56,ESE,106,13.0,21.0,53,-99.99,,,0.00,513.000000,,2013-08-09 16:32:00,
2013-08-09 10:43:00,56.0,39.0,30.56,ESE,106,13.0,21.0,53,-99.99,,,0.00,513.000000,,2013-08-09 16:43:00,
2013-08-09 10:53:00,56.0,39.0,30.56,ESE,106,13.0,21.0,53,-99.99,,,0.00,513.000000,,2013-08-09 16:53:00,
2013-08-09 11:02:00,56.0,39.0,30.56,ESE,106,13.0,21.0,53,-99.99,,,0.00,513.000000,,2013-08-09 17:02:00,
2013-08-09 11:11:00,56.0,39.0,30.56,ESE,106,13.0,21.0,53,-99.99,,,0.00,513.000000,,2013-08-09 17:11:00,
2013-08-09 11:33:00,61.0,39.0,30.22,ESE,114,5.0,16.0,44,0.00,,,0.00,752.000000,,2013-08-09 17:33:00,
2013-08-09 11:43:00,61.0,39.0,30.22,ESE,114,5.0,16.0,44,0.00,,,0.00,752.000000,,2013-08-09 17:43:00,
2013-08-09 11:52:00,61.0,39.0,30.22,ESE,114,5.0,16.0,44,0.00,,,0.00,752.000000,,2013-08-09 17:52:00,
2013-08-09 12:01:00,61.0,39.0,30.22,ESE,114,5.0,16.0,44,0.00,,,0.00,752.000000,,2013-08-09 18:01:00,
2013-08-09 12:11:00,61.0,39.0,30.22,ESE,114,5.0,16.0,44,0.00,,,0.00,752.000000,,2013-08-09 18:11:00,
2013-08-09 12:32:00,72.0,41.0,29.92,WSW,239,4.0,10.0,32,0.00,,,0.00,1043.000000,,2013-08-09 18:32:00,
2013-08-09 12:43:00,72.0,41.0,29.92,WSW,239,4.0,10.0,32,0.00,,,0.00,1043.000000,,2013-08-09 18:43:00,
2013-08-09 13:02:00,72.0,41.0,29.92,WSW,239,4.0,10.0,32,0.00,,,0.00,1043.000000,,2013-08-09 19:02:00,
2013-08-09 13:11:00,72.0,41.0,29.92,WSW,239,4.0,10.0,32,0.00,,,0.00,1043.000000,,2013-08-09 19:11:00,
2013-08-09 17:32:00,60.0,35.0,30.18,East,85,5.0,12.0,39,0.00,,,0.00,162.000000,,2013-08-09 23:32:00,
2013-08-09 17:43:00,60.0,35.0,30.18,East,85,5.0,12.0,39,0.00,,,0.00,162.000000,,2013-08-09 23:43:00,
2013-08-09 17:52:00,60.0,35.0,30.18,East,85,5.0,12.0,39,0.00,,,0.00,162.000000,,2013-08-09 23:52:00,
2013-08-09 18:01:00,60.0,35.0,30.18,East,85,5.0,12.0,39,0.00,,,0.00,162.000000,,2013-08-10 00:01:00,
2013-08-09 18:11:00,60.0,35.0,30.18,East,85,5.0,12.0,39,0.00,,,0.00,162.000000,,2013-08-10 00:11:00,
2013-08-09 18:43:00,63.0,37.0,30.15,ESE,105,5.0,9.0,38,0.00,,,0.00,256.000000,,2013-08-10 00:43:00,
2013-08-09 18:53:00,63.0,37.0,30.15,ESE,105,5.0,9.0,38,0.00,,,0.00,256.000000,,2013-08-10 00:53:00,
2013-08-09 19:01:00,63.0,37.0,30.15,ESE,105,5.0,9.0,38,0.00,,,0.00,256.000000,,2013-08-10 01:01:00,
2013-08-09 19:11:00,63.0,37.0,30.15,ESE,105,5.0,9.0,38,0.00,,,0.00,256.000000,,2013-08-10 01:11:00,
2013-08-09 19:32:00,58.0,36.0,30.21,ESE,105,12.0,15.0,43,0.00,,,0.00,149.000000,,2013-08-10 01:32:00,
2013-08-09 19:43:00,58.0,36.0,30.21,ESE,105,12.0,15.0,43,0.00,,,0.00,149.000000,,2013-08-10 01:43:00,
2013-08-09 19:52:00,58.0,36.0,30.21,ESE,105,12.0,15.0,43,0.00,,,0.00,149.000000,,2013-08-10 01:52:00,
2013-08-09 20:03:00,58.0,36.0,30.21,ESE,105,12.0,15.0,43,0.00,,,0.00,149.000000,,2013-08-10 02:03:00,
2013-08-09 20:11:00,58.0,36.0,30.21,ESE,105,12.0,15.0,43,0.00,,,0.00,149.000000,,2013-08-10 02:11:00,
2013-08-09 20:32:00,58.0,37.0,30.45,ESE,109,12.0,17.0,45,0.00,,,0.00,31.000000,,2013-08-10 02:32:00,
2013-08-09 20:42:00,58.0,37.0,30.45,ESE,109,12.0,17.0,45,0.00,,,0.00,31.000000,,2013-08-10 02:42:00,
2013-08-09 20:52:00,58.0,37.0,30.45,ESE,109,12.0,17.0,45,0.00,,,0.00,31.000000,,2013-08-10 02:52:00,
2013-08-09 21:01:00,58.0,37.0,30.45,ESE,109,12.0,17.0,45,0.00,,,0.00,31.000000,,2013-08-10 03:01:00,
2013-08-09 21:11:00,58.0,37.0,30.45,ESE,109,12.0,17.0,45,0.00,,,0.00,31.000000,,2013-08-10 03:11:00,
2013-08-09 21:12:00,57.0,32.0,30.51,ESE,122,5.0,14.0,39,0.00,,,0.00,0.000000,,2013-08-10 03:12:00,
2013-08-09 21:32:00,57.0,32.0,30.51,ESE,122,5.0,14.0,39,0.00,,,0.00,0.000000,,2013-08-10 03:32:00,
2013-08-09 21:42:00,57.0,32.0,30.51,ESE,122,5.0,14.0,39,0.00,,,0.00,0.000000,,2013-08-10 03:42:00,
2013-08-09 21:52:00,57.0,32.0,30.51,ESE,122,5.0,14.0,39,0.00,,,0.00,0.000000,,2013-08-10 03:52:00,
2013-08-09 22:01:00,57.0,32.0,30.51,ESE,122,5.0,14.0,39,0.00,,,0.00,0.000000,,2013-08-10 04:01:00,
2013-08-09 22:32:00,58.0,33.0,30.53,SW,220,4.0,12.0,39,0.00,,,0.00,0.000000,,2013-08-10 04:32:00,
2013-08-09 22:43:00,58.0,33.0,30.53,SW,220,4.0,12.0,39,0.00,,,0.00,0.000000,,2013-08-10 04:43:00,
2013-08-09 22:53:00,58.0,33.0,30.53,SW,220,4.0,12.0,39,0.00,,,0.00,0.000000,,2013-08-10 04:53:00,
2013-08-09 23:02:00,58.0,33.0,30.53,SW,220,4.0,12.0,39,0.00,,,0.00,0.000000,,2013-08-10 05:02:00,
2013-08-09 23:11:00,58.0,33.0,30.53,SW,220,4.0,12.0,39,0.00,,,0.00,0.000000,,2013-08-10 05:11:00,
2013-08-09 23:32:00,54.0,34.0,30.61,ENE,65,4.0,13.0,47,0.00,,,0.00,0.000000,,2013-08-10 05:32:00,
2013-08-09 23:43:00,54.0,34.0,30.61,ENE,65,4.0,13.0,47,0.00,,,0.00,0.000000,,2013-08-10 05:43:00,
2013-08-09 23:52:00,54.0,34.0,30.61,ENE,65,4.0,13.0,47,0.00,,,0.00,0.000000,,2013-08-10 05:52:00,